createdAt,value
2023-03-30T00:01:18.246Z,49.11
2023-03-30T00:03:47.540Z,48.73
2023-03-30T00:06:23.614Z,49.67
2023-03-30T00:08:57.422Z,48.77
2023-03-30T00:11:26.875Z,48.80
2023-03-30T00:13:55.622Z,48.72
2023-03-30T00:16:23.578Z,49.61
2023-03-30T00:18:51.752Z,49.06
2023-03-30T00:21:21.055Z,48.83
2023-03-30T00:23:50.553Z,48.70
2023-03-30T00:26:18.596Z,48.37
2023-03-30T00:28:46.928Z,48.89
2023-03-30T00:31:14.925Z,48.94
2023-03-30T00:33:46.831Z,48.43
2023-03-30T00:36:16.650Z,48.70
2023-03-30T00:38:47.865Z,49.04
2023-03-30T00:41:16.476Z,48.94
2023-03-30T00:44:04.889Z,48.76
2023-03-30T00:46:33.350Z,48.10
2023-03-30T00:49:08.944Z,48.94
2023-03-30T00:51:40.688Z,49.19
2023-03-30T00:54:16.998Z,49.26
2023-03-30T00:56:45.710Z,49.31
2023-03-30T00:59:14.421Z,48.85
2023-03-30T01:01:42.620Z,48.73
2023-03-30T01:04:13.483Z,49.45
2023-03-30T01:06:46.634Z,49.44
2023-03-30T01:09:15.807Z,49.61
2023-03-30T01:11:44.031Z,49.48
2023-03-30T01:14:17.876Z,49.65
2023-03-30T01:17:07.863Z,50.00
2023-03-30T01:20:15.435Z,50.33
2023-03-30T01:23:27.553Z,50.09
2023-03-30T01:26:30.366Z,50.49
2023-03-30T01:29:27.612Z,50.97
2023-03-30T01:32:20.725Z,51.81
2023-03-30T01:35:10.466Z,51.47
2023-03-30T01:38:16.480Z,51.53
2023-03-30T01:41:10.107Z,51.63
2023-03-30T01:44:02.242Z,52.16
2023-03-30T01:46:35.280Z,52.00
2023-03-30T01:49:32.440Z,51.87
2023-03-30T01:52:41.480Z,52.26
2023-03-30T01:55:24.286Z,52.49
2023-03-30T01:58:03.648Z,52.27
2023-03-30T02:00:32.383Z,52.42
2023-03-30T02:03:14.398Z,51.95
2023-03-30T02:05:45.596Z,51.54
2023-03-30T02:08:18.722Z,52.10
2023-03-30T02:10:48.443Z,51.59
2023-03-30T02:13:19.988Z,52.50
2023-03-30T02:15:59.927Z,51.49
2023-03-30T02:18:31.224Z,51.10
2023-03-30T02:20:59.573Z,50.26
2023-03-30T02:23:33.983Z,50.23
2023-03-30T02:26:02.337Z,49.97
2023-03-30T02:28:30.258Z,50.21
2023-03-30T02:30:58.409Z,50.81
2023-03-30T02:33:41.321Z,50.20
2023-03-30T02:36:43.301Z,50.79
2023-03-30T02:39:24.715Z,51.28
2023-03-30T02:42:23.187Z,51.18
2023-03-30T02:45:03.219Z,51.02
2023-03-30T02:48:01.097Z,51.10
2023-03-30T02:50:43.301Z,51.06
2023-03-30T02:56:38.024Z,52.05
2023-03-30T02:59:13.571Z,51.75
2023-03-30T03:01:51.024Z,52.30
2023-03-30T03:04:22.423Z,52.52
2023-03-30T03:07:14.817Z,52.54
2023-03-30T03:09:43.183Z,52.65
2023-03-30T03:12:11.656Z,53.32
2023-03-30T03:14:40.044Z,53.08
2023-03-30T03:17:07.988Z,53.19
2023-03-30T03:19:40.391Z,53.48
2023-03-30T03:22:08.408Z,54.02
2023-03-30T03:24:39.876Z,53.97
2023-03-30T03:27:27.211Z,54.06
2023-03-30T03:30:06.647Z,55.19
2023-03-30T03:32:41.780Z,55.52
2023-03-30T03:35:12.918Z,55.24
2023-03-30T03:37:41.388Z,56.07
2023-03-30T03:40:11.683Z,55.78
2023-03-30T03:42:41.122Z,56.94
2023-03-30T03:45:14.290Z,57.34
2023-03-30T03:48:00.227Z,56.93
2023-03-30T03:50:41.905Z,57.78
2023-03-30T03:53:11.603Z,57.86
2023-03-30T03:55:39.573Z,57.96
2023-03-30T03:58:08.287Z,57.92
2023-03-30T04:00:40.237Z,58.33
2023-03-30T04:03:09.427Z,58.64
2023-03-30T04:05:37.517Z,59.03
2023-03-30T04:08:06.599Z,59.11
2023-03-30T04:10:34.522Z,59.38
2023-03-30T04:13:26.869Z,59.03
2023-03-30T04:15:58.098Z,59.70
2023-03-30T04:18:37.406Z,60.90
2023-03-30T04:21:30.081Z,60.59
2023-03-30T04:24:30.611Z,61.12
2023-03-30T04:27:19.773Z,60.86
2023-03-30T04:30:12.431Z,60.96
2023-03-30T04:33:05.758Z,61.15
2023-03-30T04:35:50.241Z,60.48
2023-03-30T04:38:43.108Z,60.76
2023-03-30T04:41:16.690Z,61.09
2023-03-30T04:43:44.978Z,61.01
2023-03-30T04:46:48.509Z,60.81
2023-03-30T04:49:36.439Z,62.02
2023-03-30T04:52:23.676Z,62.14
2023-03-30T04:55:00.253Z,62.85
2023-03-30T04:57:47.181Z,62.45
2023-03-30T05:00:33.984Z,62.24
2023-03-30T05:03:23.258Z,61.77
2023-03-30T05:06:11.536Z,61.80
2023-03-30T05:09:14.814Z,61.18
2023-03-30T05:12:04.912Z,61.71
2023-03-30T05:14:54.365Z,61.34
2023-03-30T05:17:34.434Z,61.29
2023-03-30T05:20:22.924Z,60.52
2023-03-30T05:23:26.198Z,60.11
2023-03-30T05:26:17.390Z,60.14
2023-03-30T05:29:04.107Z,60.12
2023-03-30T05:31:38.986Z,59.69
2023-03-30T05:34:12.662Z,60.32
2023-03-30T05:37:02.401Z,59.62
2023-03-30T05:39:36.478Z,59.91
2023-03-30T05:42:05.857Z,60.51
2023-03-30T05:44:51.815Z,60.32
2023-03-30T05:47:46.122Z,59.75
2023-03-30T05:50:32.474Z,60.37
2023-03-30T05:53:04.108Z,59.44
2023-03-30T05:56:02.491Z,59.11
2023-03-30T05:58:50.125Z,59.07
2023-03-30T06:01:37.928Z,58.89
2023-03-30T06:04:06.513Z,58.52
2023-03-30T06:06:37.250Z,58.59
2023-03-30T06:09:05.753Z,58.10
2023-03-30T06:11:35.460Z,57.95
2023-03-30T06:14:25.207Z,58.05
2023-03-30T06:17:22.247Z,58.07
2023-03-30T06:19:50.785Z,57.96
2023-03-30T06:22:18.919Z,57.48
2023-03-30T06:25:09.059Z,57.52
2023-03-30T06:27:37.605Z,57.51
2023-03-30T06:30:06.764Z,56.51
2023-03-30T06:32:35.177Z,56.96
2023-03-30T06:35:46.509Z,57.58
2023-03-30T06:38:16.573Z,56.99
2023-03-30T06:40:45.894Z,58.17
2023-03-30T06:43:24.407Z,58.08
2023-03-30T06:46:21.759Z,58.15
2023-03-30T06:48:52.387Z,57.43
2023-03-30T06:51:35.589Z,57.78
2023-03-30T06:54:08.651Z,57.39
2023-03-30T06:56:39.432Z,56.92
2023-03-30T06:59:14.323Z,56.30
2023-03-30T07:02:03.840Z,56.63
2023-03-30T07:04:52.157Z,56.08
2023-03-30T07:07:26.361Z,54.62
2023-03-30T07:09:54.235Z,55.28
2023-03-30T07:12:23.808Z,55.36
2023-03-30T07:14:52.380Z,55.18
2023-03-30T07:17:23.063Z,55.13
2023-03-30T07:19:53.157Z,55.77
2023-03-30T07:22:21.820Z,54.95
2023-03-30T07:24:50.031Z,55.25
2023-03-30T07:27:18.088Z,54.57
2023-03-30T07:29:47.780Z,54.56
2023-03-30T07:32:17.266Z,53.90
2023-03-30T07:34:46.337Z,54.19
2023-03-30T07:37:20.670Z,54.54
2023-03-30T07:39:49.980Z,54.28
2023-03-30T07:42:18.160Z,55.18
2023-03-30T07:44:46.330Z,54.99
2023-03-30T07:47:18.143Z,54.51
2023-03-30T07:49:46.280Z,54.29
2023-03-30T07:52:14.405Z,53.41
2023-03-30T07:54:50.009Z,52.61
2023-03-30T07:57:22.439Z,53.20
2023-03-30T07:59:50.999Z,52.87
2023-03-30T08:02:30.264Z,51.99
2023-03-30T08:04:58.501Z,50.53
2023-03-30T08:07:35.769Z,49.68
2023-03-30T08:10:17.386Z,49.63
2023-03-30T08:12:46.129Z,48.95
2023-03-30T08:15:14.066Z,47.19
2023-03-30T08:17:42.149Z,45.94
2023-03-30T08:20:11.850Z,45.77
2023-03-30T08:22:40.118Z,44.64
2023-03-30T08:25:09.544Z,43.54
2023-03-30T08:27:37.502Z,41.94
2023-03-30T08:30:06.243Z,41.51
2023-03-30T08:32:34.259Z,42.45
2023-03-30T08:35:02.970Z,42.74
2023-03-30T08:37:31.553Z,42.68
2023-03-30T08:39:59.541Z,41.96
2023-03-30T08:42:53.002Z,41.84
2023-03-30T08:45:21.247Z,40.89
2023-03-30T08:47:51.888Z,41.05
2023-03-30T08:50:36.720Z,40.51
2023-03-30T08:53:08.039Z,40.53
2023-03-30T08:55:43.452Z,38.94
2023-03-30T08:58:32.712Z,38.94
2023-03-30T09:01:05.730Z,38.02
2023-03-30T09:04:11.428Z,36.65
2023-03-30T09:07:07.889Z,36.84
2023-03-30T09:09:44.771Z,36.75
2023-03-30T09:12:34.581Z,36.56
2023-03-30T09:15:08.856Z,34.91
2023-03-30T09:17:51.537Z,35.83
2023-03-30T09:20:25.774Z,35.59
2023-03-30T09:22:56.201Z,34.85
2023-03-30T09:25:42.754Z,34.14
2023-03-30T09:28:27.611Z,33.13
2023-03-30T09:31:03.603Z,32.81
2023-03-30T09:33:44.370Z,32.68
2023-03-30T09:36:18.296Z,33.08
2023-03-30T09:38:46.636Z,34.46
2023-03-30T09:41:29.588Z,35.46
2023-03-30T09:43:59.913Z,36.15
2023-03-30T09:46:28.496Z,35.47
2023-03-30T09:49:14.499Z,32.16
2023-03-30T09:52:22.420Z,29.93
2023-03-30T09:54:50.613Z,28.36
2023-03-30T09:57:30.237Z,27.18
2023-03-30T10:00:00.900Z,27.84
2023-03-30T10:02:31.631Z,28.77
2023-03-30T10:05:02.642Z,29.05
2023-03-30T10:07:40.027Z,29.79
2023-03-30T10:10:31.564Z,30.60
2023-03-30T10:13:05.141Z,30.60
2023-03-30T10:15:38.058Z,30.37
2023-03-30T10:18:31.577Z,31.05
2023-03-30T10:21:06.745Z,32.10
2023-03-30T10:23:42.111Z,32.45
2023-03-30T10:26:20.852Z,33.29
2023-03-30T10:28:54.524Z,33.30
2023-03-30T10:31:28.328Z,32.74
2023-03-30T10:33:59.797Z,32.60
2023-03-30T10:36:35.378Z,32.99
2023-03-30T10:39:30.655Z,32.42
2023-03-30T10:42:05.801Z,33.33
2023-03-30T10:44:36.040Z,32.94
2023-03-30T10:47:37.802Z,32.78
2023-03-30T10:50:41.301Z,30.90
2023-03-30T10:53:14.942Z,31.56
2023-03-30T10:55:51.545Z,31.13
2023-03-30T10:58:19.781Z,32.17
2023-03-30T11:00:58.623Z,32.48
2023-03-30T11:03:29.649Z,32.34
2023-03-30T11:06:09.413Z,34.01
2023-03-30T11:08:44.759Z,33.63
2023-03-30T11:11:20.701Z,33.72
2023-03-30T11:14:02.784Z,32.73
2023-03-30T11:16:52.838Z,33.63
2023-03-30T11:19:26.428Z,33.58
2023-03-30T11:22:19.019Z,33.20
2023-03-30T11:24:51.492Z,33.18
2023-03-30T11:27:43.956Z,32.46
2023-03-30T11:30:20.868Z,33.07
2023-03-30T11:33:39.988Z,32.90
2023-03-30T11:36:40.308Z,33.69
2023-03-30T11:39:28.818Z,32.74
2023-03-30T11:42:31.679Z,32.80
2023-03-30T11:45:02.590Z,32.99
2023-03-30T11:47:40.024Z,34.31
2023-03-30T11:50:36.395Z,33.90
2023-03-30T11:53:24.584Z,34.54
2023-03-30T11:55:59.471Z,33.74
2023-03-30T11:58:31.059Z,31.35
2023-03-30T12:01:20.846Z,31.01
2023-03-30T12:03:54.959Z,31.85
2023-03-30T12:06:42.435Z,32.58
2023-03-30T12:09:28.197Z,32.41
2023-03-30T12:12:20.313Z,31.42
2023-03-30T12:15:18.176Z,31.26
2023-03-30T12:17:59.177Z,30.53
2023-03-30T12:20:42.354Z,31.27
2023-03-30T12:23:39.602Z,30.82
2023-03-30T12:26:27.242Z,31.97
2023-03-30T12:29:35.931Z,32.23
2023-03-30T12:32:03.724Z,33.86
2023-03-30T12:34:37.639Z,33.17
2023-03-30T12:37:13.369Z,32.52
2023-03-30T12:39:50.539Z,31.37
2023-03-30T12:42:35.709Z,32.50
2023-03-30T12:45:15.503Z,31.77
2023-03-30T12:48:11.167Z,31.77
2023-03-30T12:50:45.286Z,31.13
2023-03-30T12:53:22.358Z,30.44
2023-03-30T12:56:02.907Z,30.34
2023-03-30T12:58:52.899Z,30.83
2023-03-30T13:01:38.243Z,30.86
2023-03-30T13:04:12.210Z,31.12
2023-03-30T13:06:53.456Z,31.45
2023-03-30T13:09:23.484Z,31.08
2023-03-30T13:11:56.858Z,31.60
2023-03-30T13:14:30.626Z,32.25
2023-03-30T13:16:59.093Z,31.66
2023-03-30T13:19:33.218Z,32.42
2023-03-30T13:22:13.454Z,32.05
2023-03-30T13:24:54.331Z,31.71
2023-03-30T13:27:31.325Z,31.53
2023-03-30T13:30:12.909Z,31.62
2023-03-30T13:33:11.846Z,32.08
2023-03-30T13:35:57.491Z,32.42
2023-03-30T13:38:56.528Z,32.58
2023-03-30T13:41:49.764Z,33.13
2023-03-30T13:44:36.325Z,32.87
2023-03-30T13:47:19.076Z,33.27
2023-03-30T13:49:55.364Z,32.57
2023-03-30T13:52:31.352Z,32.66
2023-03-30T13:55:00.986Z,33.21
2023-03-30T13:57:37.329Z,33.18
2023-03-30T14:00:22.959Z,33.08
2023-03-30T14:02:51.057Z,33.31
2023-03-30T14:05:23.492Z,32.81
2023-03-30T14:07:58.127Z,33.22
2023-03-30T14:10:27.546Z,33.90
2023-03-30T14:12:57.533Z,33.81
2023-03-30T14:15:35.316Z,32.92
2023-03-30T14:18:05.672Z,33.30
2023-03-30T14:20:50.288Z,33.42
2023-03-30T14:23:29.963Z,33.85
2023-03-30T14:26:01.037Z,33.33
2023-03-30T14:28:34.255Z,33.93
2023-03-30T14:31:11.577Z,34.00
2023-03-30T14:33:41.219Z,33.60
2023-03-30T14:36:12.368Z,33.87
2023-03-30T14:38:48.142Z,33.81
2023-03-30T14:41:23.143Z,33.81
2023-03-30T14:43:56.542Z,33.95
2023-03-30T14:46:28.981Z,34.42
2023-03-30T14:48:58.522Z,34.49
2023-03-30T14:51:37.632Z,34.73
2023-03-30T14:54:07.564Z,34.37
2023-03-30T14:56:36.811Z,35.42
2023-03-30T14:59:07.258Z,35.46
2023-03-30T15:01:36.264Z,35.66
2023-03-30T15:04:16.726Z,35.43
2023-03-30T15:06:48.796Z,35.94
2023-03-30T15:09:20.118Z,35.26
2023-03-30T15:11:53.149Z,35.20
2023-03-30T15:14:23.386Z,34.71
2023-03-30T15:16:54.029Z,35.75
2023-03-30T15:19:34.183Z,35.45
2023-03-30T15:22:08.233Z,35.73
2023-03-30T15:24:38.363Z,35.85
2023-03-30T15:27:12.107Z,36.07
2023-03-30T15:29:41.863Z,36.11
2023-03-30T15:32:41.999Z,36.07
2023-03-30T15:35:16.737Z,35.83
2023-03-30T15:38:00.052Z,36.35
2023-03-30T15:40:50.325Z,36.09
2023-03-30T15:43:38.743Z,36.64
2023-03-30T15:46:13.828Z,37.88
2023-03-30T15:48:45.911Z,37.87
2023-03-30T15:51:29.520Z,38.22
2023-03-30T15:54:18.498Z,39.18
2023-03-30T15:56:55.563Z,39.17
2023-03-30T15:59:29.824Z,40.82
2023-03-30T16:02:04.275Z,40.83
2023-03-30T16:04:33.033Z,41.18
2023-03-30T16:07:02.324Z,41.53
2023-03-30T16:09:30.668Z,42.32
2023-03-30T16:11:58.968Z,43.20
2023-03-30T16:14:26.925Z,43.72
2023-03-30T16:16:55.192Z,44.40
2023-03-30T16:19:26.611Z,44.50
2023-03-30T16:21:54.977Z,44.33
2023-03-30T16:24:23.812Z,45.20
2023-03-30T16:26:52.856Z,45.06
2023-03-30T16:29:23.645Z,45.61
2023-03-30T16:31:54.028Z,46.01
2023-03-30T16:34:22.717Z,46.33
2023-03-30T16:36:51.571Z,46.75
2023-03-30T16:39:23.344Z,47.39
2023-03-30T16:41:53.016Z,46.69
2023-03-30T16:44:25.517Z,48.08
2023-03-30T16:46:56.805Z,48.52
2023-03-30T16:49:26.385Z,48.54
2023-03-30T16:51:57.868Z,48.70
2023-03-30T16:54:32.518Z,49.46
2023-03-30T16:57:02.270Z,49.67
2023-03-30T16:59:32.304Z,50.24
2023-03-30T17:02:00.965Z,50.45
2023-03-30T17:04:29.468Z,49.94
2023-03-30T17:06:58.016Z,50.63
2023-03-30T17:09:27.662Z,51.12
2023-03-30T17:11:56.202Z,50.86
2023-03-30T17:14:24.866Z,50.63
2023-03-30T17:16:53.595Z,51.27
2023-03-30T17:19:22.226Z,51.51
2023-03-30T17:21:50.576Z,51.75
2023-03-30T17:24:19.078Z,51.72
2023-03-30T17:26:47.957Z,52.11
2023-03-30T17:29:16.409Z,51.77
2023-03-30T17:31:46.174Z,52.02
2023-03-30T17:34:15.322Z,51.59
2023-03-30T17:36:43.747Z,51.54
2023-03-30T17:39:15.130Z,51.46
2023-03-30T17:41:43.668Z,51.73
2023-03-30T17:44:12.429Z,50.99
2023-03-30T17:46:43.492Z,50.96
2023-03-30T17:49:17.664Z,52.05
2023-03-30T17:51:46.409Z,51.71
2023-03-30T17:54:15.276Z,51.67
2023-03-30T17:56:43.523Z,52.18
2023-03-30T17:59:12.637Z,52.13
2023-03-30T18:01:41.561Z,52.52
2023-03-30T18:04:10.282Z,54.09
2023-03-30T18:06:38.873Z,54.05
2023-03-30T18:09:17.432Z,53.65
2023-03-30T18:11:46.179Z,54.16
2023-03-30T18:14:14.722Z,53.38
2023-03-30T18:16:44.017Z,53.33
2023-03-30T18:19:12.925Z,53.16
2023-03-30T18:21:41.858Z,54.77
2023-03-30T18:24:10.256Z,54.72
2023-03-30T18:26:41.358Z,54.50
2023-03-30T18:29:20.544Z,54.87
2023-03-30T18:31:49.732Z,53.58
2023-03-30T18:34:19.986Z,53.28
2023-03-30T18:36:48.673Z,53.26
2023-03-30T18:39:20.261Z,53.43
2023-03-30T18:41:49.633Z,54.92
2023-03-30T18:44:18.262Z,55.26
2023-03-30T18:46:51.445Z,56.48
2023-03-30T18:49:22.874Z,56.55
2023-03-30T18:51:52.214Z,56.91
2023-03-30T18:54:20.467Z,56.37
2023-03-30T18:56:50.082Z,56.45
2023-03-30T18:59:22.681Z,57.00
2023-03-30T19:01:51.701Z,56.96
2023-03-30T19:04:20.282Z,56.83
2023-03-30T19:06:49.068Z,58.18
2023-03-30T19:09:18.029Z,58.16
2023-03-30T19:11:46.470Z,57.47
2023-03-30T19:14:15.143Z,57.93
2023-03-30T19:16:43.607Z,57.16
2023-03-30T19:19:15.516Z,56.78
2023-03-30T19:21:46.732Z,56.31
2023-03-30T19:24:15.114Z,56.71
2023-03-30T19:26:43.632Z,56.72
2023-03-30T19:29:13.342Z,56.51
2023-03-30T19:31:41.992Z,57.08
2023-03-30T19:34:10.664Z,57.13
2023-03-30T19:36:38.849Z,56.89
2023-03-30T19:39:06.757Z,56.65
2023-03-30T19:41:35.028Z,57.00
2023-03-30T19:44:03.216Z,57.34
2023-03-30T19:46:31.299Z,57.81
2023-03-30T19:49:00.030Z,57.53
2023-03-30T19:51:28.517Z,57.34
2023-03-30T19:53:59.959Z,57.63
2023-03-30T19:56:28.574Z,58.54
2023-03-30T19:58:56.592Z,59.08
2023-03-30T20:01:25.379Z,58.46
2023-03-30T20:03:53.790Z,58.87
2023-03-30T20:06:22.248Z,58.57
2023-03-30T20:08:50.644Z,59.14
2023-03-30T20:11:18.988Z,58.21
2023-03-30T20:13:48.310Z,58.80
2023-03-30T20:16:21.511Z,59.24
2023-03-30T20:18:52.406Z,58.49
2023-03-30T20:21:23.488Z,58.96
2023-03-30T20:23:51.816Z,59.36
2023-03-30T20:26:19.826Z,58.93
2023-03-30T20:28:49.166Z,59.17
2023-03-30T20:31:17.964Z,59.47
2023-03-30T20:33:46.479Z,58.70
2023-03-30T20:36:14.890Z,58.39
2023-03-30T20:38:46.225Z,58.93
2023-03-30T20:41:15.504Z,60.10
2023-03-30T20:43:56.429Z,59.15
2023-03-30T20:46:26.295Z,58.91
2023-03-30T20:49:02.331Z,58.62
2023-03-30T20:51:30.336Z,58.93
2023-03-30T20:53:58.575Z,58.73
2023-03-30T20:56:28.240Z,58.79
2023-03-30T20:58:56.637Z,59.26
2023-03-30T21:01:29.491Z,58.73
2023-03-30T21:04:00.064Z,59.70
2023-03-30T21:06:30.313Z,59.33
2023-03-30T21:09:01.154Z,59.83
2023-03-30T21:11:32.082Z,59.83
2023-03-30T21:14:01.684Z,60.44
2023-03-30T21:16:29.685Z,60.07
2023-03-30T21:18:57.953Z,60.47
2023-03-30T21:21:27.317Z,60.47
2023-03-30T21:23:55.208Z,60.89
2023-03-30T21:26:23.447Z,61.00
2023-03-30T21:28:51.413Z,60.52
2023-03-30T21:31:19.383Z,60.17
2023-03-30T21:33:47.643Z,59.82
2023-03-30T21:36:15.709Z,61.04
2023-03-30T21:38:43.565Z,60.48
2023-03-30T21:41:16.216Z,60.15
2023-03-30T21:43:47.560Z,60.05
2023-03-30T21:46:18.282Z,60.07
2023-03-30T21:48:47.535Z,60.05
2023-03-30T21:51:30.052Z,60.05
2023-03-30T21:53:58.769Z,60.17
2023-03-30T21:56:29.569Z,60.57
2023-03-30T21:58:59.062Z,61.43
2023-03-30T22:01:27.818Z,60.77
2023-03-30T22:03:56.613Z,61.36
2023-03-30T22:06:24.791Z,61.42
2023-03-30T22:08:52.835Z,61.13
2023-03-30T22:11:24.262Z,60.74
2023-03-30T22:13:55.469Z,61.06
2023-03-30T22:16:28.524Z,60.72
2023-03-30T22:18:56.999Z,61.19
2023-03-30T22:21:34.487Z,61.21
2023-03-30T22:24:13.881Z,61.37
2023-03-30T22:26:41.886Z,61.44
2023-03-30T22:29:10.472Z,61.86
2023-03-30T22:31:38.748Z,62.13
2023-03-30T22:34:07.474Z,62.21
2023-03-30T22:36:35.860Z,62.26
2023-03-30T22:39:04.598Z,62.17
2023-03-30T22:41:32.690Z,62.66
2023-03-30T22:44:00.743Z,63.04
2023-03-30T22:46:28.749Z,63.00
2023-03-30T22:48:56.647Z,62.98
2023-03-30T22:51:28.511Z,63.49
2023-03-30T22:53:58.843Z,64.06
2023-03-30T22:56:29.019Z,62.65
2023-03-30T22:58:57.379Z,63.42
2023-03-30T23:01:26.091Z,63.34
2023-03-30T23:03:54.656Z,62.54
2023-03-30T23:06:22.615Z,63.17
2023-03-30T23:08:51.912Z,63.26
2023-03-30T23:11:21.838Z,63.91
2023-03-30T23:13:50.255Z,63.34
2023-03-30T23:16:18.182Z,63.52
2023-03-30T23:18:46.156Z,62.15
2023-03-30T23:21:14.252Z,62.49
2023-03-30T23:23:42.693Z,63.26
2023-03-30T23:26:11.470Z,62.11
2023-03-30T23:28:42.040Z,62.65
2023-03-30T23:31:16.835Z,62.71
2023-03-30T23:33:45.670Z,63.04
2023-03-30T23:36:14.522Z,63.44
2023-03-30T23:38:43.481Z,63.61
2023-03-30T23:41:14.672Z,63.79
2023-03-30T23:43:42.983Z,63.94
2023-03-30T23:46:11.396Z,64.21
2023-03-30T23:48:40.686Z,64.56
2023-03-30T23:51:08.934Z,65.06
2023-03-30T23:53:40.522Z,64.78
2023-03-30T23:56:13.294Z,64.59
2023-03-30T23:58:41.798Z,65.10
